METAR Data
IDs: Format: Raw Decoded Include TAF

Data at: 1947 UTC 21 Sep 2021

KHOT 211942Z AUTO 00000KT 10SM OVC015 24/21 A3007 RMK AO2 RAB1856E11 P0000 T02390211
KHOT 211853Z AUTO 00000KT 10SM OVC012 23/22 A3009 RMK AO2 LTG DSNT S-W SLP183 T02330217
KHOT 211830Z AUTO 00000KT 10SM SCT009 OVC014 23/22 A3008 RMK AO2 LTG DSNT SW T02330217
KHOT 211823Z AUTO 00000KT 10SM BKN009 OVC015 23/21 A3009 RMK AO2 LTG DSNT SW CIG 007V012 T02330211
KHOT 211801Z AUTO 00000KT 10SM SCT007 BKN029 OVC110 24/21 A3008 RMK AO2 T02390211
KHOT 211753Z AUTO 00000KT 10SM BKN029 OVC110 23/21 A3008 RMK AO2 RAE26 SLP179 P0000 60079 T02330211 10278 20211 56009
KHOT 211751Z AUTO 00000KT 10SM BKN029 BKN110 23/21 A3008 RMK AO2 RAE26 P0000
KHOT 211653Z AUTO 07005KT 5SM -RA BR FEW036 BKN065 OVC100 22/20 A3008 RMK AO2 LTG DSNT E AND SE AND W TSE37 SLP180 P0029 T02170200
KHOT 211643Z AUTO 00000KT 5SM VCTS -RA BR FEW033 SCT046 OVC100 22/21 A3009 RMK AO2 LTG DSNT NE-SE TSE37 P0028 T02170206
KHOT 211626Z AUTO 16004KT 6SM -TSRA BR SCT047 BKN095 OVC110 21/20 A3009 RMK AO2 LTG DSNT NE-S P0026 T02110200
KHOT 211609Z AUTO 07008KT 2SM -TSRA BR BKN030 BKN065 OVC095 21/20 A3009 RMK AO2 LTG DSNT ALQDS P0023 T02110200
KHOT 211603Z AUTO 11008KT 080V140 3/4SM +TSRA BR BKN025 BKN036 OVC100 21/20 A3011 RMK AO2 LTG DSNT ALQDS P0022 T02110200
KHOT 211553Z AUTO 21006G17KT 1/4SM +TSRA FG BKN017 OVC036 21/20 A3011 RMK AO2 LTG DSNT ALQDS RAB40 TSB36 SLP189 P0050 T02110200
KHOT 211550Z AUTO 22004G19KT 1/4SM +TSRA FG BKN017 OVC036 21/19 A3010 RMK AO2 LTG DSNT ALQDS RAB40 TSB36 P0040
KHOT 211544Z AUTO 28011G24KT 3/4SM +TSRA FEW019 SCT025 OVC036 23/20 A3011 RMK AO2 LTG DSNT ALQDS RAB40 TSB36 PRESRR P0018 T02330200
KHOT 211541Z AUTO 29014G24KT 2SM -TSRA FEW023 OVC036 26/21 A3011 RMK AO2 LTG DSNT W-NE RAB40 TSB36 PRESRR P0006 T02560206
KHOT 211531Z AUTO 19003KT 10SM VCTS OVC037 27/21 A3005 RMK AO2 LTG DSNT W-NE T02720206
KHOT 211453Z AUTO 00000KT 10SM SCT038 SCT047 BKN090 27/21 A3004 RMK AO2 LTG DSNT W AND NW SLP166 T02720206 53017
KHOT 211353Z AUTO 14005KT 10SM CLR 27/21 A3001 RMK AO2 SLP155 T02670206
KHOT 211253Z AUTO 10003KT 10SM CLR 26/21 A3001 RMK AO2 SLP153 T02610206
KHOT 211153Z AUTO 06007KT 10SM CLR 25/22 A2999 RMK AO2 SLP148 T02500217 10261 20233 51024
KHOT 211053Z AUTO 00000KT 10SM SCT065 SCT080 25/22 A2998 RMK AO2 SLP144 T02500217
KHOT 210953Z AUTO 00000KT 9SM CLR 24/22 A2993 RMK AO2 SLP128 T02440217
KHOT 210853Z AUTO 00000KT 10SM CLR 24/22 A2992 RMK AO2 SLP124 T02390217 58004
KHOT 210753Z AUTO 10003KT 10SM CLR 25/22 A2994 RMK AO2 SLP129 T02500217
KHOT 210653Z AUTO VRB03KT 9SM CLR 24/22 A2994 RMK AO2 SLP130 T02440217
KHOT 210553Z AUTO 13003KT 10SM CLR 26/22 A2993 RMK AO2 SLP128 T02610222 10306 20261 403330217 51004
KHOT 210453Z AUTO 16006KT 10SM CLR 27/22 A2993 RMK AO2 SLP127 T02670222
KHOT 210353Z AUTO VRB03KT 10SM CLR 27/22 A2993 RMK AO2 SLP128 T02720222
KHOT 210253Z AUTO 17005KT 10SM CLR 28/22 A2992 RMK AO2 SLP124 T02780217 53015
KHOT 210153Z AUTO 16003KT 10SM CLR 28/21 A2990 RMK AO2 SLP118 T02830211
KHOT 210053Z AUTO 17004KT 10SM CLR 29/21 A2988 RMK AO2 SLP111 T02940211
KHOT 202353Z AUTO 25003KT 10SM CLR 31/20 A2987 RMK AO2 SLP109 T03060200 10333 20289 55000
KHOT 202253Z AUTO 21006KT 10SM FEW050 33/19 A2986 RMK AO2 SLP105 T03280194
KHOT 202153Z AUTO 22006KT 10SM FEW049 33/20 A2986 RMK AO2 SLP104 T03280200
KHOT 202053Z AUTO 22009KT 10SM CLR 33/21 A2987 RMK AO2 SLP108 T03280206 56021
KHOT 201953Z AUTO 19008KT 10SM FEW042 SCT050 32/21 A2989 RMK AO2 SLP115 T03220211